sensor_id;sensor_type;location;lat;lon;timestamp;temperature;humidity
1996;DHT22;38556;47.068;15.408;2023-01-30T00:01:41;0.10;99.90
1996;DHT22;38556;47.068;15.408;2023-01-30T00:04:10;0.10;99.90
1996;DHT22;38556;47.068;15.408;2023-01-30T00:06:39;0.20;99.90
1996;DHT22;38556;47.068;15.408;2023-01-30T00:09:06;0.10;99.90
1996;DHT22;38556;47.068;15.408;2023-01-30T00:11:35;0.00;99.90
1996;DHT22;38556;47.068;15.408;2023-01-30T00:14:02;0.10;99.90
1996;DHT22;38556;47.068;15.408;2023-01-30T00:16:30;-0.10;99.90
1996;DHT22;38556;47.068;15.408;2023-01-30T00:18:57;-0.10;99.90
1996;DHT22;38556;47.068;15.408;2023-01-30T00:21:25;0.00;99.90
1996;DHT22;38556;47.068;15.408;2023-01-30T00:23:52;0.10;99.90
1996;DHT22;38556;47.068;15.408;2023-01-30T00:26:20;0.10;99.90
1996;DHT22;38556;47.068;15.408;2023-01-30T00:28:48;0.20;99.90
1996;DHT22;38556;47.068;15.408;2023-01-30T00:31:16;0.20;99.90
1996;DHT22;38556;47.068;15.408;2023-01-30T00:33:43;0.30;99.90
1996;DHT22;38556;47.068;15.408;2023-01-30T00:36:10;0.30;99.90
1996;DHT22;38556;47.068;15.408;2023-01-30T00:38:38;0.20;99.90
1996;DHT22;38556;47.068;15.408;2023-01-30T00:41:05;0.30;99.90
1996;DHT22;38556;47.068;15.408;2023-01-30T00:43:32;0.20;99.90
1996;DHT22;38556;47.068;15.408;2023-01-30T00:46:23;0.00;99.90
1996;DHT22;38556;47.068;15.408;2023-01-30T00:49:10;-0.20;99.90
1996;DHT22;38556;47.068;15.408;2023-01-30T00:51:37;-0.20;99.90
1996;DHT22;38556;47.068;15.408;2023-01-30T00:54:04;-0.30;99.90
1996;DHT22;38556;47.068;15.408;2023-01-30T00:56:32;-0.30;99.90
1996;DHT22;38556;47.068;15.408;2023-01-30T00:58:59;-0.40;99.90
1996;DHT22;38556;47.068;15.408;2023-01-30T01:01:28;-0.30;99.90
1996;DHT22;38556;47.068;15.408;2023-01-30T01:03:55;-0.30;99.90
1996;DHT22;38556;47.068;15.408;2023-01-30T01:06:22;-0.40;99.90
1996;DHT22;38556;47.068;15.408;2023-01-30T01:08:49;-0.30;99.90
1996;DHT22;38556;47.068;15.408;2023-01-30T01:11:17;-0.20;99.90
1996;DHT22;38556;47.068;15.408;2023-01-30T01:13:51;-0.20;99.90
1996;DHT22;38556;47.068;15.408;2023-01-30T01:16:19;-0.10;99.90
1996;DHT22;38556;47.068;15.408;2023-01-30T01:18:48;0.00;99.90
1996;DHT22;38556;47.068;15.408;2023-01-30T01:21:16;0.00;99.90
1996;DHT22;38556;47.068;15.408;2023-01-30T01:23:48;0.10;99.90
1996;DHT22;38556;47.068;15.408;2023-01-30T01:26:16;0.00;99.90
1996;DHT22;38556;47.068;15.408;2023-01-30T01:28:43;-0.10;99.90
1996;DHT22;38556;47.068;15.408;2023-01-30T01:31:13;-0.10;99.90
1996;DHT22;38556;47.068;15.408;2023-01-30T01:33:41;-0.10;99.90
1996;DHT22;38556;47.068;15.408;2023-01-30T01:36:10;-0.10;99.90
1996;DHT22;38556;47.068;15.408;2023-01-30T01:38:40;0.00;99.90
1996;DHT22;38556;47.068;15.408;2023-01-30T01:41:09;0.00;99.90
1996;DHT22;38556;47.068;15.408;2023-01-30T01:43:37;-0.10;99.90
1996;DHT22;38556;47.068;15.408;2023-01-30T01:46:09;-0.10;99.90
1996;DHT22;38556;47.068;15.408;2023-01-30T01:48:43;-0.20;99.90
1996;DHT22;38556;47.068;15.408;2023-01-30T01:51:16;-0.30;99.90
1996;DHT22;38556;47.068;15.408;2023-01-30T01:53:49;-0.20;99.90
1996;DHT22;38556;47.068;15.408;2023-01-30T01:56:18;-0.10;99.90
1996;DHT22;38556;47.068;15.408;2023-01-30T01:58:50;0.00;99.90
1996;DHT22;38556;47.068;15.408;2023-01-30T02:01:19;0.00;99.90
1996;DHT22;38556;47.068;15.408;2023-01-30T02:03:49;0.00;99.90
1996;DHT22;38556;47.068;15.408;2023-01-30T02:06:21;-0.10;99.90
1996;DHT22;38556;47.068;15.408;2023-01-30T02:08:51;0.00;99.90
1996;DHT22;38556;47.068;15.408;2023-01-30T02:11:23;0.00;99.90
1996;DHT22;38556;47.068;15.408;2023-01-30T02:13:52;0.00;99.90
1996;DHT22;38556;47.068;15.408;2023-01-30T02:16:21;0.10;99.90
1996;DHT22;38556;47.068;15.408;2023-01-30T02:18:48;0.10;99.90
1996;DHT22;38556;47.068;15.408;2023-01-30T02:21:53;0.40;99.90
1996;DHT22;38556;47.068;15.408;2023-01-30T02:27:35;0.10;99.90
1996;DHT22;38556;47.068;15.408;2023-01-30T02:33:11;0.00;99.90
1996;DHT22;38556;47.068;15.408;2023-01-30T02:35:48;0.00;99.90
1996;DHT22;38556;47.068;15.408;2023-01-30T02:38:28;0.00;99.90
1996;DHT22;38556;47.068;15.408;2023-01-30T02:41:01;0.00;99.90
1996;DHT22;38556;47.068;15.408;2023-01-30T02:43:43;0.00;99.90
1996;DHT22;38556;47.068;15.408;2023-01-30T02:46:16;0.00;99.90
1996;DHT22;38556;47.068;15.408;2023-01-30T02:48:48;0.00;99.90
1996;DHT22;38556;47.068;15.408;2023-01-30T02:51:19;0.00;99.90
1996;DHT22;38556;47.068;15.408;2023-01-30T02:53:48;0.00;99.90
1996;DHT22;38556;47.068;15.408;2023-01-30T02:56:16;-0.10;99.90
1996;DHT22;38556;47.068;15.408;2023-01-30T02:58:48;-0.10;99.90
1996;DHT22;38556;47.068;15.408;2023-01-30T03:01:39;-0.10;99.90
1996;DHT22;38556;47.068;15.408;2023-01-30T03:04:23;-0.30;99.90
1996;DHT22;38556;47.068;15.408;2023-01-30T03:07:11;-0.30;99.90
1996;DHT22;38556;47.068;15.408;2023-01-30T03:09:45;-0.30;99.90
1996;DHT22;38556;47.068;15.408;2023-01-30T03:12:21;-0.30;99.90
1996;DHT22;38556;47.068;15.408;2023-01-30T03:14:54;-0.20;99.90
1996;DHT22;38556;47.068;15.408;2023-01-30T03:17:24;-0.20;99.90
1996;DHT22;38556;47.068;15.408;2023-01-30T03:19:54;-0.20;99.90
1996;DHT22;38556;47.068;15.408;2023-01-30T03:22:22;-0.20;99.90
1996;DHT22;38556;47.068;15.408;2023-01-30T03:24:52;-0.20;99.90
1996;DHT22;38556;47.068;15.408;2023-01-30T03:27:20;-0.30;99.90
1996;DHT22;38556;47.068;15.408;2023-01-30T03:29:48;-0.30;99.90
1996;DHT22;38556;47.068;15.408;2023-01-30T03:32:15;-0.50;99.90
1996;DHT22;38556;47.068;15.408;2023-01-30T03:34:43;-0.50;99.90
1996;DHT22;38556;47.068;15.408;2023-01-30T03:37:11;-0.50;99.90
1996;DHT22;38556;47.068;15.408;2023-01-30T03:39:38;-0.50;99.90
1996;DHT22;38556;47.068;15.408;2023-01-30T03:42:06;-0.50;99.90
1996;DHT22;38556;47.068;15.408;2023-01-30T03:44:33;-0.50;99.90
1996;DHT22;38556;47.068;15.408;2023-01-30T03:47:01;-0.60;99.90
1996;DHT22;38556;47.068;15.408;2023-01-30T03:49:28;-0.60;99.90
1996;DHT22;38556;47.068;15.408;2023-01-30T03:51:55;-1.20;99.90
1996;DHT22;38556;47.068;15.408;2023-01-30T03:54:24;-1.20;99.90
1996;DHT22;38556;47.068;15.408;2023-01-30T03:56:51;-1.30;99.90
1996;DHT22;38556;47.068;15.408;2023-01-30T03:59:18;-1.20;99.90
1996;DHT22;38556;47.068;15.408;2023-01-30T04:01:45;-1.20;99.90
1996;DHT22;38556;47.068;15.408;2023-01-30T04:04:13;-1.20;99.90
1996;DHT22;38556;47.068;15.408;2023-01-30T04:09:07;-1.20;99.90
1996;DHT22;38556;47.068;15.408;2023-01-30T04:11:36;-1.20;99.90
1996;DHT22;38556;47.068;15.408;2023-01-30T04:14:04;-1.30;99.90
1996;DHT22;38556;47.068;15.408;2023-01-30T04:16:31;-1.50;99.90
1996;DHT22;38556;47.068;15.408;2023-01-30T04:18:58;-1.80;99.90
1996;DHT22;38556;47.068;15.408;2023-01-30T04:21:25;-1.70;99.90
1996;DHT22;38556;47.068;15.408;2023-01-30T04:23:52;-1.70;99.90
1996;DHT22;38556;47.068;15.408;2023-01-30T04:26:20;-1.50;99.90
1996;DHT22;38556;47.068;15.408;2023-01-30T04:28:49;-1.40;99.90
1996;DHT22;38556;47.068;15.408;2023-01-30T04:31:16;-1.30;99.90
1996;DHT22;38556;47.068;15.408;2023-01-30T04:33:43;-1.40;99.90
1996;DHT22;38556;47.068;15.408;2023-01-30T04:36:11;-1.30;99.90
1996;DHT22;38556;47.068;15.408;2023-01-30T04:38:38;-1.40;99.90
1996;DHT22;38556;47.068;15.408;2023-01-30T04:41:06;-1.20;99.90
1996;DHT22;38556;47.068;15.408;2023-01-30T04:43:33;-1.10;99.90
1996;DHT22;38556;47.068;15.408;2023-01-30T04:46:02;-1.20;99.90
1996;DHT22;38556;47.068;15.408;2023-01-30T04:48:30;-1.00;99.90
1996;DHT22;38556;47.068;15.408;2023-01-30T04:50:57;-1.10;99.90
1996;DHT22;38556;47.068;15.408;2023-01-30T04:53:25;-1.30;99.90
1996;DHT22;38556;47.068;15.408;2023-01-30T04:55:52;-1.40;99.90
1996;DHT22;38556;47.068;15.408;2023-01-30T04:58:19;-1.40;99.90
1996;DHT22;38556;47.068;15.408;2023-01-30T05:00:47;-1.40;99.90
1996;DHT22;38556;47.068;15.408;2023-01-30T05:03:16;-1.30;99.90
1996;DHT22;38556;47.068;15.408;2023-01-30T05:05:45;-1.40;99.90
1996;DHT22;38556;47.068;15.408;2023-01-30T05:08:12;-1.50;99.90
1996;DHT22;38556;47.068;15.408;2023-01-30T05:10:40;-1.50;99.90
1996;DHT22;38556;47.068;15.408;2023-01-30T05:13:08;-1.70;99.90
1996;DHT22;38556;47.068;15.408;2023-01-30T05:15:35;-1.70;99.90
1996;DHT22;38556;47.068;15.408;2023-01-30T05:18:04;-1.50;99.90
1996;DHT22;38556;47.068;15.408;2023-01-30T05:20:33;-1.60;99.90
1996;DHT22;38556;47.068;15.408;2023-01-30T05:23:00;-1.60;99.90
1996;DHT22;38556;47.068;15.408;2023-01-30T05:25:28;-1.50;99.90
1996;DHT22;38556;47.068;15.408;2023-01-30T05:27:55;-1.30;99.90
1996;DHT22;38556;47.068;15.408;2023-01-30T05:30:22;-1.30;99.90
1996;DHT22;38556;47.068;15.408;2023-01-30T05:32:50;-1.30;99.90
1996;DHT22;38556;47.068;15.408;2023-01-30T05:35:17;-1.20;99.90
1996;DHT22;38556;47.068;15.408;2023-01-30T05:37:50;-1.10;99.90
1996;DHT22;38556;47.068;15.408;2023-01-30T05:40:17;-1.10;99.90
1996;DHT22;38556;47.068;15.408;2023-01-30T05:42:45;-1.10;99.90
1996;DHT22;38556;47.068;15.408;2023-01-30T05:45:12;-1.30;99.90
1996;DHT22;38556;47.068;15.408;2023-01-30T05:47:39;-1.50;99.90
1996;DHT22;38556;47.068;15.408;2023-01-30T05:50:08;-1.40;99.90
1996;DHT22;38556;47.068;15.408;2023-01-30T05:52:35;-1.50;99.90
1996;DHT22;38556;47.068;15.408;2023-01-30T05:55:05;-1.40;99.90
1996;DHT22;38556;47.068;15.408;2023-01-30T05:57:33;-1.20;99.90
1996;DHT22;38556;47.068;15.408;2023-01-30T06:00:00;-1.10;99.90
1996;DHT22;38556;47.068;15.408;2023-01-30T06:02:27;-1.10;99.90
1996;DHT22;38556;47.068;15.408;2023-01-30T06:04:56;-1.00;99.90
1996;DHT22;38556;47.068;15.408;2023-01-30T06:07:23;-1.00;99.90
1996;DHT22;38556;47.068;15.408;2023-01-30T06:09:51;-1.00;99.90
1996;DHT22;38556;47.068;15.408;2023-01-30T06:12:19;-0.90;99.90
1996;DHT22;38556;47.068;15.408;2023-01-30T06:14:47;-0.90;99.90
1996;DHT22;38556;47.068;15.408;2023-01-30T06:17:14;-0.90;99.90
1996;DHT22;38556;47.068;15.408;2023-01-30T06:19:41;-0.90;99.90
1996;DHT22;38556;47.068;15.408;2023-01-30T06:22:09;-0.90;99.90
1996;DHT22;38556;47.068;15.408;2023-01-30T06:24:36;-0.90;99.90
1996;DHT22;38556;47.068;15.408;2023-01-30T06:27:04;-0.90;99.90
1996;DHT22;38556;47.068;15.408;2023-01-30T06:29:32;-0.90;99.90
1996;DHT22;38556;47.068;15.408;2023-01-30T06:34:27;-1.00;99.90
1996;DHT22;38556;47.068;15.408;2023-01-30T06:36:54;-1.20;99.90
1996;DHT22;38556;47.068;15.408;2023-01-30T06:39:22;-1.20;99.90
1996;DHT22;38556;47.068;15.408;2023-01-30T06:41:49;-1.20;99.90
1996;DHT22;38556;47.068;15.408;2023-01-30T06:44:16;-1.00;99.90
1996;DHT22;38556;47.068;15.408;2023-01-30T06:46:45;-1.00;99.90
1996;DHT22;38556;47.068;15.408;2023-01-30T06:51:40;-0.90;99.90
1996;DHT22;38556;47.068;15.408;2023-01-30T06:54:07;-0.80;99.90
1996;DHT22;38556;47.068;15.408;2023-01-30T06:56:34;-0.80;99.90
1996;DHT22;38556;47.068;15.408;2023-01-30T06:59:02;-0.70;99.90
1996;DHT22;38556;47.068;15.408;2023-01-30T07:01:29;-0.60;99.90
1996;DHT22;38556;47.068;15.408;2023-01-30T07:03:58;-0.60;99.90
1996;DHT22;38556;47.068;15.408;2023-01-30T07:06:26;-0.50;99.90
1996;DHT22;38556;47.068;15.408;2023-01-30T07:08:53;-0.40;99.90
1996;DHT22;38556;47.068;15.408;2023-01-30T07:11:21;-0.50;99.90
1996;DHT22;38556;47.068;15.408;2023-01-30T07:13:48;-0.20;99.90
1996;DHT22;38556;47.068;15.408;2023-01-30T07:16:16;-0.30;99.90
1996;DHT22;38556;47.068;15.408;2023-01-30T07:18:43;-0.30;99.90
1996;DHT22;38556;47.068;15.408;2023-01-30T07:21:12;-0.20;99.90
1996;DHT22;38556;47.068;15.408;2023-01-30T07:23:39;-0.20;99.90
1996;DHT22;38556;47.068;15.408;2023-01-30T07:26:08;-0.20;99.90
1996;DHT22;38556;47.068;15.408;2023-01-30T07:28:36;-0.10;99.90
1996;DHT22;38556;47.068;15.408;2023-01-30T07:31:03;-0.10;99.90
1996;DHT22;38556;47.068;15.408;2023-01-30T07:33:30;-0.10;99.90
1996;DHT22;38556;47.068;15.408;2023-01-30T07:35:57;-0.10;99.90
1996;DHT22;38556;47.068;15.408;2023-01-30T07:38:26;0.00;99.90
1996;DHT22;38556;47.068;15.408;2023-01-30T07:40:56;0.00;99.90
1996;DHT22;38556;47.068;15.408;2023-01-30T07:43:23;0.00;99.90
1996;DHT22;38556;47.068;15.408;2023-01-30T07:45:51;0.00;99.90
1996;DHT22;38556;47.068;15.408;2023-01-30T07:48:18;-0.10;99.90
1996;DHT22;38556;47.068;15.408;2023-01-30T07:50:46;-0.30;99.90
1996;DHT22;38556;47.068;15.408;2023-01-30T07:53:15;-0.20;99.90
1996;DHT22;38556;47.068;15.408;2023-01-30T07:55:44;-0.20;99.90
1996;DHT22;38556;47.068;15.408;2023-01-30T07:58:13;0.00;99.90
1996;DHT22;38556;47.068;15.408;2023-01-30T08:00:40;0.00;99.90
1996;DHT22;38556;47.068;15.408;2023-01-30T08:03:11;0.10;99.90
1996;DHT22;38556;47.068;15.408;2023-01-30T08:05:38;0.10;99.90
1996;DHT22;38556;47.068;15.408;2023-01-30T08:08:05;0.20;99.90
1996;DHT22;38556;47.068;15.408;2023-01-30T08:10:33;0.20;99.90
1996;DHT22;38556;47.068;15.408;2023-01-30T08:13:02;0.20;99.90
1996;DHT22;38556;47.068;15.408;2023-01-30T08:15:29;0.20;99.90
1996;DHT22;38556;47.068;15.408;2023-01-30T08:17:59;0.20;99.90
1996;DHT22;38556;47.068;15.408;2023-01-30T08:20:26;0.20;99.90
1996;DHT22;38556;47.068;15.408;2023-01-30T08:22:54;0.30;99.90
1996;DHT22;38556;47.068;15.408;2023-01-30T08:25:22;0.20;99.90
1996;DHT22;38556;47.068;15.408;2023-01-30T08:27:49;0.20;99.90
1996;DHT22;38556;47.068;15.408;2023-01-30T08:30:19;0.30;99.90
1996;DHT22;38556;47.068;15.408;2023-01-30T08:32:46;0.40;99.90
1996;DHT22;38556;47.068;15.408;2023-01-30T08:35:14;0.40;99.90
1996;DHT22;38556;47.068;15.408;2023-01-30T08:37:42;0.40;99.90
1996;DHT22;38556;47.068;15.408;2023-01-30T08:40:10;0.40;99.90
1996;DHT22;38556;47.068;15.408;2023-01-30T08:42:38;0.40;99.90
1996;DHT22;38556;47.068;15.408;2023-01-30T08:45:06;0.40;99.90
1996;DHT22;38556;47.068;15.408;2023-01-30T08:47:34;0.40;99.90
1996;DHT22;38556;47.068;15.408;2023-01-30T08:50:03;0.60;99.90
1996;DHT22;38556;47.068;15.408;2023-01-30T08:52:31;0.60;99.90
1996;DHT22;38556;47.068;15.408;2023-01-30T08:54:59;0.70;99.90
1996;DHT22;38556;47.068;15.408;2023-01-30T08:57:26;0.80;99.90
1996;DHT22;38556;47.068;15.408;2023-01-30T08:59:54;0.90;99.90
1996;DHT22;38556;47.068;15.408;2023-01-30T09:02:21;1.00;99.90
1996;DHT22;38556;47.068;15.408;2023-01-30T09:04:50;1.00;99.90
1996;DHT22;38556;47.068;15.408;2023-01-30T09:07:17;1.20;99.90
1996;DHT22;38556;47.068;15.408;2023-01-30T09:09:45;1.30;99.90
1996;DHT22;38556;47.068;15.408;2023-01-30T09:12:13;1.40;99.90
1996;DHT22;38556;47.068;15.408;2023-01-30T09:14:41;1.40;99.90
1996;DHT22;38556;47.068;15.408;2023-01-30T09:17:08;1.40;99.90
1996;DHT22;38556;47.068;15.408;2023-01-30T09:22:04;1.40;99.90
1996;DHT22;38556;47.068;15.408;2023-01-30T09:24:33;1.50;99.90
1996;DHT22;38556;47.068;15.408;2023-01-30T09:27:00;1.50;99.90
1996;DHT22;38556;47.068;15.408;2023-01-30T09:29:28;1.50;99.90
1996;DHT22;38556;47.068;15.408;2023-01-30T09:31:55;1.80;99.90
1996;DHT22;38556;47.068;15.408;2023-01-30T09:34:24;1.70;99.90
1996;DHT22;38556;47.068;15.408;2023-01-30T09:36:53;2.00;99.90
1996;DHT22;38556;47.068;15.408;2023-01-30T09:39:22;1.90;99.90
1996;DHT22;38556;47.068;15.408;2023-01-30T09:45:03;2.10;99.90
1996;DHT22;38556;47.068;15.408;2023-01-30T09:47:39;2.20;99.90
1996;DHT22;38556;47.068;15.408;2023-01-30T09:50:25;2.20;99.90
1996;DHT22;38556;47.068;15.408;2023-01-30T09:53:02;2.20;99.90
1996;DHT22;38556;47.068;15.408;2023-01-30T09:55:36;2.10;99.90
1996;DHT22;38556;47.068;15.408;2023-01-30T09:58:07;2.30;99.90
1996;DHT22;38556;47.068;15.408;2023-01-30T10:00:39;2.40;99.90
1996;DHT22;38556;47.068;15.408;2023-01-30T10:03:10;2.40;99.90
1996;DHT22;38556;47.068;15.408;2023-01-30T10:05:42;2.60;99.90
1996;DHT22;38556;47.068;15.408;2023-01-30T10:08:24;2.40;99.90
1996;DHT22;38556;47.068;15.408;2023-01-30T10:11:06;2.50;99.90
1996;DHT22;38556;47.068;15.408;2023-01-30T10:13:48;2.80;99.90
1996;DHT22;38556;47.068;15.408;2023-01-30T10:16:25;2.60;99.90
1996;DHT22;38556;47.068;15.408;2023-01-30T10:18:59;2.60;99.90
1996;DHT22;38556;47.068;15.408;2023-01-30T10:21:41;2.80;99.90
1996;DHT22;38556;47.068;15.408;2023-01-30T10:24:24;2.80;99.90
1996;DHT22;38556;47.068;15.408;2023-01-30T10:26:56;2.70;99.90
1996;DHT22;38556;47.068;15.408;2023-01-30T10:29:27;2.70;99.90
1996;DHT22;38556;47.068;15.408;2023-01-30T10:34:29;2.70;99.90
1996;DHT22;38556;47.068;15.408;2023-01-30T10:37:01;2.70;99.90
1996;DHT22;38556;47.068;15.408;2023-01-30T10:39:36;2.70;99.90
1996;DHT22;38556;47.068;15.408;2023-01-30T10:42:11;2.60;99.90
1996;DHT22;38556;47.068;15.408;2023-01-30T10:44:39;2.60;99.90
1996;DHT22;38556;47.068;15.408;2023-01-30T10:47:22;2.60;99.90
1996;DHT22;38556;47.068;15.408;2023-01-30T10:49:55;2.60;99.90
1996;DHT22;38556;47.068;15.408;2023-01-30T10:52:38;2.60;99.90
1996;DHT22;38556;47.068;15.408;2023-01-30T10:55:24;2.70;99.90
1996;DHT22;38556;47.068;15.408;2023-01-30T10:58:01;2.70;99.90
1996;DHT22;38556;47.068;15.408;2023-01-30T11:00:35;2.80;99.90
1996;DHT22;38556;47.068;15.408;2023-01-30T11:03:19;3.40;99.90
1996;DHT22;38556;47.068;15.408;2023-01-30T11:05:49;3.30;99.90
1996;DHT22;38556;47.068;15.408;2023-01-30T11:08:20;3.20;99.90
1996;DHT22;38556;47.068;15.408;2023-01-30T11:10:48;3.30;99.90
1996;DHT22;38556;47.068;15.408;2023-01-30T11:13:18;3.50;99.90
1996;DHT22;38556;47.068;15.408;2023-01-30T11:15:48;3.50;99.90
1996;DHT22;38556;47.068;15.408;2023-01-30T11:18:18;3.70;99.90
1996;DHT22;38556;47.068;15.408;2023-01-30T11:21:03;3.70;99.90
1996;DHT22;38556;47.068;15.408;2023-01-30T11:23:33;6.80;99.90
1996;DHT22;38556;47.068;15.408;2023-01-30T11:26:02;3.30;99.90
1996;DHT22;38556;47.068;15.408;2023-01-30T11:28:38;3.30;99.90
1996;DHT22;38556;47.068;15.408;2023-01-30T11:33:43;3.20;99.90
1996;DHT22;38556;47.068;15.408;2023-01-30T11:36:25;3.50;99.90
1996;DHT22;38556;47.068;15.408;2023-01-30T11:38:57;3.60;99.90
1996;DHT22;38556;47.068;15.408;2023-01-30T11:41:24;3.70;99.90
1996;DHT22;38556;47.068;15.408;2023-01-30T11:46:28;3.70;99.90
1996;DHT22;38556;47.068;15.408;2023-01-30T11:49:00;3.90;99.90
1996;DHT22;38556;47.068;15.408;2023-01-30T11:51:29;3.80;99.90
1996;DHT22;38556;47.068;15.408;2023-01-30T11:53:59;3.80;99.90
1996;DHT22;38556;47.068;15.408;2023-01-30T11:56:33;3.90;99.90
1996;DHT22;38556;47.068;15.408;2023-01-30T11:59:06;4.00;99.90
1996;DHT22;38556;47.068;15.408;2023-01-30T12:01:34;4.10;99.90
1996;DHT22;38556;47.068;15.408;2023-01-30T12:04:07;4.10;99.90
1996;DHT22;38556;47.068;15.408;2023-01-30T12:06:36;4.10;99.90
1996;DHT22;38556;47.068;15.408;2023-01-30T12:09:04;4.10;99.90
1996;DHT22;38556;47.068;15.408;2023-01-30T12:11:42;4.10;99.90
1996;DHT22;38556;47.068;15.408;2023-01-30T12:14:32;4.20;99.90
1996;DHT22;38556;47.068;15.408;2023-01-30T12:17:05;4.40;99.90
1996;DHT22;38556;47.068;15.408;2023-01-30T12:19:45;4.50;99.90
1996;DHT22;38556;47.068;15.408;2023-01-30T12:22:23;4.50;99.90
1996;DHT22;38556;47.068;15.408;2023-01-30T12:24:57;4.80;99.90
1996;DHT22;38556;47.068;15.408;2023-01-30T12:27:36;5.00;99.90
1996;DHT22;38556;47.068;15.408;2023-01-30T12:30:21;5.00;99.90
1996;DHT22;38556;47.068;15.408;2023-01-30T12:32:52;5.10;99.90
1996;DHT22;38556;47.068;15.408;2023-01-30T12:35:28;5.10;99.90
1996;DHT22;38556;47.068;15.408;2023-01-30T12:38:02;5.30;99.90
1996;DHT22;38556;47.068;15.408;2023-01-30T12:40:42;5.40;99.90
1996;DHT22;38556;47.068;15.408;2023-01-30T12:43:31;5.50;99.90
1996;DHT22;38556;47.068;15.408;2023-01-30T12:46:14;5.40;99.90
1996;DHT22;38556;47.068;15.408;2023-01-30T12:48:54;5.40;99.90
1996;DHT22;38556;47.068;15.408;2023-01-30T12:51:38;5.30;99.90
1996;DHT22;38556;47.068;15.408;2023-01-30T12:54:20;8.20;99.90
1996;DHT22;38556;47.068;15.408;2023-01-30T12:56:56;5.60;99.90
1996;DHT22;38556;47.068;15.408;2023-01-30T12:59:33;5.60;99.90
1996;DHT22;38556;47.068;15.408;2023-01-30T13:02:32;5.90;99.90
1996;DHT22;38556;47.068;15.408;2023-01-30T13:05:16;6.00;99.90
1996;DHT22;38556;47.068;15.408;2023-01-30T13:07:55;6.10;99.90
1996;DHT22;38556;47.068;15.408;2023-01-30T13:10:32;6.20;99.90
1996;DHT22;38556;47.068;15.408;2023-01-30T13:13:10;6.30;99.90
1996;DHT22;38556;47.068;15.408;2023-01-30T13:15:44;6.50;99.90
1996;DHT22;38556;47.068;15.408;2023-01-30T13:18:19;6.50;99.90
1996;DHT22;38556;47.068;15.408;2023-01-30T13:20:53;6.50;99.90
1996;DHT22;38556;47.068;15.408;2023-01-30T13:23:29;6.60;99.90
1996;DHT22;38556;47.068;15.408;2023-01-30T13:26:03;7.00;99.90
1996;DHT22;38556;47.068;15.408;2023-01-30T13:28:34;7.00;99.90
1996;DHT22;38556;47.068;15.408;2023-01-30T13:31:05;7.10;99.90
1996;DHT22;38556;47.068;15.408;2023-01-30T13:33:36;7.40;99.90
1996;DHT22;38556;47.068;15.408;2023-01-30T13:36:11;7.40;99.90
1996;DHT22;38556;47.068;15.408;2023-01-30T13:38:48;7.30;99.90
1996;DHT22;38556;47.068;15.408;2023-01-30T13:41:19;7.40;99.90
1996;DHT22;38556;47.068;15.408;2023-01-30T13:43:50;7.60;99.90
1996;DHT22;38556;47.068;15.408;2023-01-30T13:46:24;7.70;99.90
1996;DHT22;38556;47.068;15.408;2023-01-30T13:49:06;7.60;99.90
1996;DHT22;38556;47.068;15.408;2023-01-30T13:51:44;7.80;99.90
1996;DHT22;38556;47.068;15.408;2023-01-30T13:57:18;8.20;99.90
1996;DHT22;38556;47.068;15.408;2023-01-30T14:00:17;8.30;99.90
1996;DHT22;38556;47.068;15.408;2023-01-30T14:03:27;8.60;99.90
1996;DHT22;38556;47.068;15.408;2023-01-30T14:06:36;8.50;99.90
1996;DHT22;38556;47.068;15.408;2023-01-30T14:09:18;8.60;99.90
1996;DHT22;38556;47.068;15.408;2023-01-30T14:11:55;8.90;99.90
1996;DHT22;38556;47.068;15.408;2023-01-30T14:14:31;8.80;99.90
1996;DHT22;38556;47.068;15.408;2023-01-30T14:17:19;9.00;99.90
1996;DHT22;38556;47.068;15.408;2023-01-30T14:19:59;9.00;99.90
1996;DHT22;38556;47.068;15.408;2023-01-30T14:22:46;9.20;99.90
1996;DHT22;38556;47.068;15.408;2023-01-30T14:25:44;8.80;99.90
1996;DHT22;38556;47.068;15.408;2023-01-30T14:31:50;8.90;99.90
1996;DHT22;38556;47.068;15.408;2023-01-30T14:34:54;8.80;99.90
1996;DHT22;38556;47.068;15.408;2023-01-30T14:37:51;8.40;99.90
1996;DHT22;38556;47.068;15.408;2023-01-30T14:40:40;8.30;99.90
1996;DHT22;38556;47.068;15.408;2023-01-30T14:43:35;8.50;99.90
1996;DHT22;38556;47.068;15.408;2023-01-30T14:46:04;8.40;99.90
1996;DHT22;38556;47.068;15.408;2023-01-30T14:48:37;8.60;99.90
1996;DHT22;38556;47.068;15.408;2023-01-30T14:51:18;8.90;99.90
1996;DHT22;38556;47.068;15.408;2023-01-30T14:53:53;8.90;99.90
1996;DHT22;38556;47.068;15.408;2023-01-30T14:56:36;9.50;99.90
1996;DHT22;38556;47.068;15.408;2023-01-30T14:59:07;10.80;99.90
1996;DHT22;38556;47.068;15.408;2023-01-30T15:01:58;11.30;99.90
1996;DHT22;38556;47.068;15.408;2023-01-30T15:04:28;12.70;98.40
1996;DHT22;38556;47.068;15.408;2023-01-30T15:06:58;14.10;97.50
1996;DHT22;38556;47.068;15.408;2023-01-30T15:09:28;15.30;95.70
1996;DHT22;38556;47.068;15.408;2023-01-30T15:12:14;16.30;93.50
1996;DHT22;38556;47.068;15.408;2023-01-30T15:14:49;16.90;91.00
1996;DHT22;38556;47.068;15.408;2023-01-30T15:17:27;17.60;88.20
1996;DHT22;38556;47.068;15.408;2023-01-30T15:23:14;16.60;84.00
1996;DHT22;38556;47.068;15.408;2023-01-30T15:26:11;15.70;84.50
1996;DHT22;38556;47.068;15.408;2023-01-30T15:28:49;15.00;84.00
1996;DHT22;38556;47.068;15.408;2023-01-30T15:31:21;14.50;84.70
1996;DHT22;38556;47.068;15.408;2023-01-30T15:33:50;13.90;85.60
1996;DHT22;38556;47.068;15.408;2023-01-30T15:36:21;13.40;86.00
1996;DHT22;38556;47.068;15.408;2023-01-30T15:39:01;13.00;86.00
1996;DHT22;38556;47.068;15.408;2023-01-30T15:41:33;12.60;87.40
1996;DHT22;38556;47.068;15.408;2023-01-30T15:44:29;11.90;88.20
1996;DHT22;38556;47.068;15.408;2023-01-30T15:47:12;11.20;88.80
1996;DHT22;38556;47.068;15.408;2023-01-30T15:49:54;11.00;89.20
1996;DHT22;38556;47.068;15.408;2023-01-30T15:52:26;10.70;90.60
1996;DHT22;38556;47.068;15.408;2023-01-30T15:54:58;10.40;91.10
1996;DHT22;38556;47.068;15.408;2023-01-30T15:57:32;10.00;91.80
1996;DHT22;38556;47.068;15.408;2023-01-30T16:00:03;9.80;92.40
1996;DHT22;38556;47.068;15.408;2023-01-30T16:02:32;9.50;92.70
1996;DHT22;38556;47.068;15.408;2023-01-30T16:05:12;8.10;93.90
1996;DHT22;38556;47.068;15.408;2023-01-30T16:07:40;8.10;94.80
1996;DHT22;38556;47.068;15.408;2023-01-30T16:10:13;8.10;95.20
1996;DHT22;38556;47.068;15.408;2023-01-30T16:12:50;7.70;95.90
1996;DHT22;38556;47.068;15.408;2023-01-30T16:15:25;7.60;96.50
1996;DHT22;38556;47.068;15.408;2023-01-30T16:18:00;6.90;97.50
1996;DHT22;38556;47.068;15.408;2023-01-30T16:20:29;6.90;97.80
1996;DHT22;38556;47.068;15.408;2023-01-30T16:22:57;6.10;99.40
1996;DHT22;38556;47.068;15.408;2023-01-30T16:25:26;6.10;99.80
1996;DHT22;38556;47.068;15.408;2023-01-30T16:28:01;6.60;99.50
1996;DHT22;38556;47.068;15.408;2023-01-30T16:30:28;6.70;99.20
1996;DHT22;38556;47.068;15.408;2023-01-30T16:32:56;6.70;99.00
1996;DHT22;38556;47.068;15.408;2023-01-30T16:35:30;6.80;99.30
1996;DHT22;38556;47.068;15.408;2023-01-30T16:38:01;6.50;99.40
1996;DHT22;38556;47.068;15.408;2023-01-30T16:40:42;6.60;99.70
1996;DHT22;38556;47.068;15.408;2023-01-30T16:43:17;6.10;99.80
1996;DHT22;38556;47.068;15.408;2023-01-30T16:48:44;6.20;99.90
1996;DHT22;38556;47.068;15.408;2023-01-30T16:51:18;6.00;99.90